Time;durP1;ratioP1;P1;durP2;ratioP2;P2;SDS_P1;SDS_P2;PMS_P1;PMS_P2;Temp;Humidity;BMP_temperature;BMP_pressure;BME280_temperature;BME280_humidity;BME280_pressure;Samples;Min_cycle;Max_cycle;Signal;HPM_P1;HPM_P2
2023/03/27 00:01:01;0.00;0.00;0.62;0.00;0.00;0.62;1.87;0.90;;;24.00;23.90;;;;;;2263594;61;20406;-66
2023/03/27 00:03:48;0.00;0.00;0.62;0.00;0.00;0.62;1.40;0.70;;;24.00;23.90;;;;;;2261038;61;20356;-66
2023/03/27 00:06:33;0.00;0.00;0.62;0.00;0.00;0.62;1.90;0.93;;;24.00;24.40;;;;;;2264331;61;20383;-66
2023/03/27 00:09:20;0.00;0.00;0.62;0.00;0.00;0.62;1.50;0.77;;;24.00;23.90;;;;;;2263791;61;20383;-66
2023/03/27 00:12:06;0.00;0.00;0.62;0.00;0.00;0.62;1.90;0.93;;;24.00;23.90;;;;;;2264337;61;20368;-66
2023/03/27 00:14:51;0.00;0.00;0.62;0.00;0.00;0.62;1.70;0.67;;;24.00;23.90;;;;;;2263789;61;20444;-66
2023/03/27 00:17:36;0.00;0.00;0.62;0.00;0.00;0.62;1.40;0.70;;;24.00;23.90;;;;;;2264525;61;20459;-67
2023/03/27 00:20:22;0.00;0.00;0.62;0.00;0.00;0.62;1.60;0.70;;;23.90;23.80;;;;;;2264133;61;20364;-66
2023/03/27 00:23:07;0.00;0.00;0.62;0.00;0.00;0.62;1.50;0.80;;;24.00;23.80;;;;;;2263584;61;20352;-67
2023/03/27 00:25:54;0.00;0.00;0.62;0.00;0.00;0.62;1.40;0.70;;;23.90;23.70;;;;;;2264314;61;20419;-66
2023/03/27 00:28:41;0.00;0.00;0.62;0.00;0.00;0.62;1.50;0.60;;;24.00;23.80;;;;;;2264453;61;20877;-66
2023/03/27 00:31:26;0.00;0.00;0.62;0.00;0.00;0.62;1.20;0.63;;;23.90;23.70;;;;;;2260862;61;20391;-68
2023/03/27 00:34:11;0.00;0.00;0.62;0.00;0.00;0.62;1.93;0.70;;;23.90;23.70;;;;;;2264204;61;20434;-66
2023/03/27 00:36:56;0.00;0.00;0.62;0.00;0.00;0.62;1.37;0.70;;;23.90;23.70;;;;;;2263761;61;20800;-66
2023/03/27 00:39:41;0.00;0.00;0.62;0.00;0.00;0.62;1.83;0.80;;;23.90;23.70;;;;;;2263680;61;20356;-66
2023/03/27 00:42:27;0.00;0.00;0.62;0.00;0.00;0.62;1.77;0.80;;;23.90;23.70;;;;;;2261063;61;20368;-66
2023/03/27 00:45:18;0.00;0.00;0.62;0.00;0.00;0.62;1.80;0.90;;;23.90;23.70;;;;;;2260466;61;20395;-66
2023/03/27 00:48:07;0.00;0.00;0.62;0.00;0.00;0.62;2.23;0.80;;;23.90;23.70;;;;;;2261066;61;20372;-66
2023/03/27 00:50:53;0.00;0.00;0.62;0.00;0.00;0.62;1.33;0.70;;;23.90;23.70;;;;;;2260659;61;20418;-66
2023/03/27 00:53:38;0.00;0.00;0.62;0.00;0.00;0.62;1.50;0.70;;;23.90;23.70;;;;;;2263815;61;20515;-66
2023/03/27 00:56:23;0.00;0.00;0.62;0.00;0.00;0.62;1.40;0.70;;;23.90;23.70;;;;;;2264092;61;20505;-69
2023/03/27 00:59:14;0.00;0.00;0.62;0.00;0.00;0.62;1.40;0.70;;;23.90;23.70;;;;;;2260323;61;20368;-66
2023/03/27 01:02:02;0.00;0.00;0.62;0.00;0.00;0.62;1.30;0.60;;;23.90;23.70;;;;;;2264131;61;20359;-66
2023/03/27 01:04:47;0.00;0.00;0.62;0.00;0.00;0.62;1.50;0.80;;;23.80;23.70;;;;;;2260938;61;20432;-66
2023/03/27 01:07:32;0.00;0.00;0.62;0.00;0.00;0.62;1.30;0.60;;;23.80;23.60;;;;;;2260315;61;20355;-66
2023/03/27 01:10:18;0.00;0.00;0.62;0.00;0.00;0.62;1.50;0.80;;;23.80;23.60;;;;;;2260827;61;20435;-66
2023/03/27 01:13:19;0.00;0.00;0.62;0.00;0.00;0.62;1.77;0.70;;;23.80;23.60;;;;;;2263646;61;20951;-66
2023/03/27 01:20:06;0.00;0.00;0.62;0.00;0.00;0.62;2.30;1.00;;;23.80;23.60;;;;;;2269295;61;20359;-66
2023/03/27 01:24:11;0.00;0.00;0.62;0.00;0.00;0.62;1.20;0.60;;;23.80;23.60;;;;;;2267558;61;20362;-66
2023/03/27 01:27:05;0.00;0.00;0.62;0.00;0.00;0.62;1.70;0.70;;;23.80;23.60;;;;;;2253100;61;20465;-66
2023/03/27 01:30:05;0.00;0.00;0.62;0.00;0.00;0.62;1.30;0.73;;;23.80;23.60;;;;;;2252888;61;20521;-66
2023/03/27 01:33:41;0.00;0.00;0.62;0.00;0.00;0.62;1.33;0.63;;;23.80;23.60;;;;;;2252270;61;20498;-66
2023/03/27 01:37:13;0.00;0.00;0.62;0.00;0.00;0.62;1.83;0.80;;;23.70;23.60;;;;;;2254112;61;20389;-65
2023/03/27 01:40:06;0.00;0.00;0.62;0.00;0.00;0.62;1.53;0.80;;;23.80;23.60;;;;;;2254698;61;20464;-66
2023/03/27 01:43:01;0.00;0.00;0.62;0.00;0.00;0.62;1.97;0.70;;;23.80;23.60;;;;;;2251965;61;20365;-66
2023/03/27 01:45:51;0.00;0.00;0.62;0.00;0.00;0.62;1.33;0.60;;;23.70;23.60;;;;;;2252109;61;20421;-66
2023/03/27 01:48:42;0.00;0.00;0.62;0.00;0.00;0.62;1.90;0.70;;;23.70;23.60;;;;;;2254886;61;20529;-66
2023/03/27 01:51:33;0.00;0.00;0.62;0.00;0.00;0.62;1.40;0.60;;;23.70;23.60;;;;;;2254096;61;20361;-66
2023/03/27 01:54:23;0.00;0.00;0.62;0.00;0.00;0.62;1.93;0.80;;;23.70;23.60;;;;;;2252188;61;20366;-67
2023/03/27 01:57:16;0.00;0.00;0.62;0.00;0.00;0.62;1.57;0.70;;;23.70;23.60;;;;;;2261170;61;20427;-66
2023/03/27 02:00:16;0.00;0.00;0.62;0.00;0.00;0.62;1.40;0.60;;;23.70;23.60;;;;;;2260281;61;20406;-66
2023/03/27 02:03:12;0.00;0.00;0.62;0.00;0.00;0.62;1.23;0.70;;;23.70;23.60;;;;;;2264104;61;20766;-66
2023/03/27 02:06:02;0.00;0.00;0.62;0.00;0.00;0.62;2.03;0.70;;;23.70;23.60;;;;;;2263530;61;20394;-66
2023/03/27 02:08:53;0.00;0.00;0.62;0.00;0.00;0.62;1.33;0.70;;;23.70;23.60;;;;;;2264197;61;20375;-67
2023/03/27 02:11:43;0.00;0.00;0.62;0.00;0.00;0.62;1.60;0.80;;;23.70;24.10;;;;;;2260834;61;20423;-66
2023/03/27 02:14:35;0.00;0.00;0.62;0.00;0.00;0.62;1.30;0.70;;;23.60;23.50;;;;;;2263729;61;20812;-66
2023/03/27 02:17:25;0.00;0.00;0.62;0.00;0.00;0.62;1.30;0.70;;;23.70;23.60;;;;;;2261369;61;20441;-66
2023/03/27 02:20:15;0.00;0.00;0.62;0.00;0.00;0.62;1.30;0.63;;;23.70;23.60;;;;;;2262704;61;20832;-66
2023/03/27 02:23:00;0.00;0.00;0.62;0.00;0.00;0.62;1.50;0.73;;;23.60;23.50;;;;;;2263526;61;21002;-66
2023/03/27 02:25:45;0.00;0.00;0.62;0.00;0.00;0.62;1.50;0.70;;;23.60;23.50;;;;;;2263418;61;20384;-66
2023/03/27 02:28:41;0.00;0.00;0.62;0.00;0.00;0.62;1.40;0.90;;;23.60;23.50;;;;;;2262550;61;20430;-66
2023/03/27 02:31:57;0.00;0.00;0.62;0.00;0.00;0.62;1.60;0.70;;;23.60;23.50;;;;;;2266626;61;20379;-66
2023/03/27 02:35:05;0.00;0.00;0.62;0.00;0.00;0.62;1.50;0.70;;;23.60;23.50;;;;;;2263324;61;20368;-66
2023/03/27 02:38:03;0.00;0.00;0.62;0.00;0.00;0.62;1.50;0.77;;;23.60;23.50;;;;;;2263729;61;20764;-66
2023/03/27 02:41:08;0.00;0.00;0.62;0.00;0.00;0.62;1.30;0.67;;;23.60;23.50;;;;;;2263287;61;20485;-67
2023/03/27 02:44:15;0.00;0.00;0.62;0.00;0.00;0.62;1.20;0.60;;;23.60;23.50;;;;;;2263237;61;20786;-66
2023/03/27 02:47:15;0.00;0.00;0.62;0.00;0.00;0.62;1.57;0.70;;;23.60;23.50;;;;;;2263393;61;20450;-66
2023/03/27 02:50:06;0.00;0.00;0.62;0.00;0.00;0.62;1.40;0.70;;;23.60;23.50;;;;;;2262634;61;20360;-66
2023/03/27 02:53:00;0.00;0.00;0.62;0.00;0.00;0.62;1.67;0.77;;;23.60;23.50;;;;;;2263531;61;20415;-66
2023/03/27 02:55:50;0.00;0.00;0.62;0.00;0.00;0.62;2.20;0.67;;;23.60;23.50;;;;;;2263511;61;20971;-66
2023/03/27 02:58:43;0.00;0.00;0.62;0.00;0.00;0.62;1.37;0.60;;;23.60;23.50;;;;;;2263478;61;20392;-67
2023/03/27 03:01:40;0.00;0.00;0.62;0.00;0.00;0.62;1.40;0.70;;;23.50;23.50;;;;;;2263245;61;20340;-68
2023/03/27 03:04:45;0.00;0.00;0.62;0.00;0.00;0.62;1.50;0.70;;;23.50;23.40;;;;;;2263083;61;20764;-71
2023/03/27 03:07:45;0.00;0.00;0.62;0.00;0.00;0.62;1.50;1.00;;;23.50;23.50;;;;;;2263184;61;20403;-66
2023/03/27 03:10:32;0.00;0.00;0.62;0.00;0.00;0.62;1.53;0.80;;;23.50;23.40;;;;;;2263138;61;20367;-66
2023/03/27 03:13:17;0.00;0.00;0.62;0.00;0.00;0.62;1.30;0.70;;;23.50;23.50;;;;;;2263057;61;20469;-66
2023/03/27 03:16:02;0.00;0.00;0.62;0.00;0.00;0.62;1.40;0.70;;;23.50;23.40;;;;;;2264528;61;20434;-66
2023/03/27 03:18:47;0.00;0.00;0.62;0.00;0.00;0.62;1.40;0.63;;;23.50;23.40;;;;;;2261380;61;20364;-66
2023/03/27 03:21:33;0.00;0.00;0.62;0.00;0.00;0.62;1.50;0.60;;;23.50;23.40;;;;;;2261004;61;20399;-66
2023/03/27 03:24:20;0.00;0.00;0.62;0.00;0.00;0.62;1.40;0.80;;;23.50;23.40;;;;;;2263933;61;20774;-66
2023/03/27 03:27:07;0.00;0.00;0.62;0.00;0.00;0.62;1.27;0.70;;;23.50;23.40;;;;;;2263459;61;20392;-66
2023/03/27 03:30:00;0.00;0.00;0.62;0.00;0.00;0.62;1.20;0.60;;;23.50;23.40;;;;;;2263699;61;20383;-66
2023/03/27 03:32:47;0.00;0.00;0.62;0.00;0.00;0.62;1.20;0.60;;;23.50;23.40;;;;;;2264268;61;20729;-66
2023/03/27 03:35:33;0.00;0.00;0.62;0.00;0.00;0.62;1.40;0.70;;;23.50;23.40;;;;;;2260538;61;20819;-66
2023/03/27 03:38:23;0.00;0.00;0.62;0.00;0.00;0.62;1.40;0.70;;;23.40;23.30;;;;;;2264177;61;20396;-66
2023/03/27 03:41:08;0.00;0.00;0.62;0.00;0.00;0.62;1.40;0.60;;;23.40;23.40;;;;;;2263713;61;20901;-66
2023/03/27 03:43:53;0.00;0.00;0.62;0.00;0.00;0.62;1.20;0.60;;;23.40;23.40;;;;;;2261029;61;20934;-66
2023/03/27 03:46:38;0.00;0.00;0.62;0.00;0.00;0.62;1.30;0.70;;;23.40;23.40;;;;;;2261130;61;20564;-66
2023/03/27 03:49:23;0.00;0.00;0.62;0.00;0.00;0.62;1.43;0.70;;;23.40;23.30;;;;;;2259869;61;20618;-66
2023/03/27 03:52:08;0.00;0.00;0.62;0.00;0.00;0.62;1.87;0.80;;;23.40;23.40;;;;;;2261212;61;20428;-67
2023/03/27 03:54:54;0.00;0.00;0.62;0.00;0.00;0.62;2.00;0.80;;;23.40;23.40;;;;;;2261275;61;20383;-66
2023/03/27 03:57:39;0.00;0.00;0.62;0.00;0.00;0.62;1.67;0.60;;;23.30;23.30;;;;;;2260537;61;20537;-66
2023/03/27 04:00:30;0.00;0.00;0.62;0.00;0.00;0.62;1.30;0.70;;;23.40;23.40;;;;;;2263774;61;20424;-66
2023/03/27 04:03:15;0.00;0.00;0.62;0.00;0.00;0.62;1.23;0.60;;;23.30;23.30;;;;;;2263828;61;20356;-65
2023/03/27 04:06:00;0.00;0.00;0.62;0.00;0.00;0.62;1.30;0.60;;;23.40;23.40;;;;;;2260918;61;20403;-66
2023/03/27 04:08:45;0.00;0.00;0.62;0.00;0.00;0.62;1.30;0.60;;;23.30;23.30;;;;;;2264261;61;20924;-66
2023/03/27 04:11:51;0.00;0.00;0.62;0.00;0.00;0.62;1.40;0.60;;;23.30;23.30;;;;;;2263625;61;20421;-68
2023/03/27 04:14:56;0.00;0.00;0.62;0.00;0.00;0.62;1.33;0.73;;;23.30;23.30;;;;;;2263977;61;20402;-66
2023/03/27 04:18:00;0.00;0.00;0.62;0.00;0.00;0.62;1.40;0.70;;;23.30;23.30;;;;;;2267150;61;20413;-66
2023/03/27 04:20:48;0.00;0.00;0.62;0.00;0.00;0.62;1.70;0.90;;;23.30;23.40;;;;;;2264589;61;20916;-66
2023/03/27 04:23:33;0.00;0.00;0.62;0.00;0.00;0.62;2.10;0.70;;;23.30;23.40;;;;;;2265145;61;20405;-65
2023/03/27 04:26:25;0.00;0.00;0.62;0.00;0.00;0.62;1.33;0.60;;;23.30;23.30;;;;;;2264446;61;20375;-66
2023/03/27 04:29:46;0.00;0.00;0.62;0.00;0.00;0.62;1.30;0.70;;;23.30;23.30;;;;;;2266456;61;20366;-66
2023/03/27 04:32:51;0.00;0.00;0.62;0.00;0.00;0.62;1.77;0.80;;;23.30;23.40;;;;;;2268338;61;20410;-66
2023/03/27 04:35:55;0.00;0.00;0.62;0.00;0.00;0.62;1.80;0.70;;;23.20;23.30;;;;;;2265827;61;20797;-67
2023/03/27 04:38:42;0.00;0.00;0.62;0.00;0.00;0.62;2.00;1.00;;;23.20;23.30;;;;;;2265331;61;20354;-66
2023/03/27 04:41:28;0.00;0.00;0.62;0.00;0.00;0.62;1.37;0.63;;;23.20;23.30;;;;;;2264530;61;20363;-66
2023/03/27 04:44:16;0.00;0.00;0.62;0.00;0.00;0.62;1.83;0.80;;;23.20;23.30;;;;;;2265001;61;20409;-66
2023/03/27 04:47:02;0.00;0.00;0.62;0.00;0.00;0.62;1.40;0.60;;;23.20;23.30;;;;;;2268172;61;20378;-66
2023/03/27 04:49:49;0.00;0.00;0.62;0.00;0.00;0.62;1.40;0.77;;;23.20;23.30;;;;;;2264081;61;20707;-66
2023/03/27 04:52:47;0.00;0.00;0.62;0.00;0.00;0.62;1.30;0.60;;;23.20;23.30;;;;;;2265416;61;20462;-66
2023/03/27 04:55:36;0.00;0.00;0.62;0.00;0.00;0.62;1.40;0.67;;;23.20;23.30;;;;;;2264867;61;20513;-66
2023/03/27 04:58:24;0.00;0.00;0.62;0.00;0.00;0.62;1.60;0.83;;;23.20;23.30;;;;;;2265136;61;20417;-66
2023/03/27 05:01:10;0.00;0.00;0.62;0.00;0.00;0.62;2.03;1.00;;;23.20;23.30;;;;;;2264748;61;20359;-66
2023/03/27 05:04:25;0.00;0.00;0.62;0.00;0.00;0.62;1.47;0.83;;;23.10;23.30;;;;;;2264380;61;20350;-66
2023/03/27 05:10:23;0.00;0.00;0.62;0.00;0.00;0.62;2.23;0.70;;;23.10;23.30;;;;;;2260962;61;20381;-66
2023/03/27 05:13:09;0.00;0.00;0.62;0.00;0.00;0.62;2.87;1.17;;;23.10;23.30;;;;;;2262240;61;20392;-66
2023/03/27 05:15:54;0.00;0.00;0.62;0.00;0.00;0.62;2.27;0.77;;;23.10;23.30;;;;;;2258411;61;20438;-66
2023/03/27 05:18:43;0.00;0.00;0.62;0.00;0.00;0.62;1.93;0.80;;;23.10;23.30;;;;;;2263555;61;20415;-65
2023/03/27 05:21:30;0.00;0.00;0.62;0.00;0.00;0.62;1.30;0.70;;;23.10;23.30;;;;;;2261004;61;20383;-66
2023/03/27 05:24:15;0.00;0.00;0.62;0.00;0.00;0.62;2.00;0.80;;;23.10;23.30;;;;;;2263742;61;20776;-66
2023/03/27 05:27:02;0.00;0.00;0.62;0.00;0.00;0.62;1.80;0.80;;;23.10;23.30;;;;;;2260592;61;20391;-67
2023/03/27 05:29:48;0.00;0.00;0.62;0.00;0.00;0.62;1.80;0.80;;;23.10;23.30;;;;;;2263686;61;20888;-66
2023/03/27 05:32:34;0.00;0.00;0.62;0.00;0.00;0.62;1.83;0.80;;;23.10;23.30;;;;;;2260710;61;21002;-66
2023/03/27 05:35:29;0.00;0.00;0.62;0.00;0.00;0.62;1.67;0.70;;;23.10;23.30;;;;;;2263739;61;20379;-66
2023/03/27 05:38:18;0.00;0.00;0.62;0.00;0.00;0.62;1.47;0.70;;;23.00;23.30;;;;;;2263953;61;20551;-66
2023/03/27 05:41:29;0.00;0.00;0.62;0.00;0.00;0.62;2.17;1.00;;;23.00;23.20;;;;;;2263660;61;20374;-66
2023/03/27 05:44:14;0.00;0.00;0.62;0.00;0.00;0.62;1.67;0.80;;;23.00;23.20;;;;;;2264099;61;20356;-68
2023/03/27 05:47:02;0.00;0.00;0.62;0.00;0.00;0.62;1.87;1.00;;;23.00;23.30;;;;;;2260670;61;20675;-66
2023/03/27 05:49:49;0.00;0.00;0.62;0.00;0.00;0.62;1.80;0.93;;;23.00;23.30;;;;;;2260210;61;20367;-67
2023/03/27 05:52:34;0.00;0.00;0.62;0.00;0.00;0.62;2.00;1.27;;;23.00;23.30;;;;;;2263690;61;20392;-69
2023/03/27 05:55:22;0.00;0.00;0.62;0.00;0.00;0.62;1.77;1.00;;;23.00;23.30;;;;;;2260318;61;20807;-66
2023/03/27 05:58:10;0.00;0.00;0.62;0.00;0.00;0.62;1.97;0.93;;;23.00;23.30;;;;;;2260970;61;20413;-66
2023/03/27 06:00:56;0.00;0.00;0.62;0.00;0.00;0.62;2.10;1.30;;;23.00;23.30;;;;;;2263512;61;20363;-66
2023/03/27 06:03:41;0.00;0.00;0.62;0.00;0.00;0.62;1.70;1.00;;;23.00;23.30;;;;;;2260103;61;20359;-66
2023/03/27 06:06:33;0.00;0.00;0.62;0.00;0.00;0.62;1.50;1.03;;;23.00;23.30;;;;;;2260874;61;20388;-66
2023/03/27 06:09:17;0.00;0.00;0.62;0.00;0.00;0.62;2.00;1.13;;;23.00;23.30;;;;;;2263381;61;20912;-66
2023/03/27 06:12:20;0.00;0.00;0.62;0.00;0.00;0.62;2.50;1.10;;;23.00;23.30;;;;;;2260918;61;20772;-66
2023/03/27 06:15:10;0.00;0.00;0.62;0.00;0.00;0.62;1.90;1.07;;;22.90;23.30;;;;;;2260744;61;20761;-66
2023/03/27 06:18:00;0.00;0.00;0.62;0.00;0.00;0.62;2.70;1.40;;;22.90;23.20;;;;;;2260426;61;20401;-69
2023/03/27 06:20:52;0.00;0.00;0.62;0.00;0.00;0.62;1.60;1.00;;;22.90;23.30;;;;;;2260575;61;20896;-66
2023/03/27 06:23:37;0.00;0.00;0.62;0.00;0.00;0.62;2.07;1.13;;;22.90;23.20;;;;;;2260660;61;20754;-66
2023/03/27 06:26:29;0.00;0.00;0.62;0.00;0.00;0.62;2.00;1.20;;;22.90;23.30;;;;;;2259940;61;20920;-66
2023/03/27 06:29:18;0.00;0.00;0.62;0.00;0.00;0.62;3.50;1.57;;;22.90;23.30;;;;;;2260388;61;20363;-66
2023/03/27 06:32:05;0.00;0.00;0.62;0.00;0.00;0.62;2.00;1.17;;;22.90;23.30;;;;;;2259989;61;20723;-68
2023/03/27 06:34:56;0.00;0.00;0.62;0.00;0.00;0.62;2.80;1.77;;;22.90;23.30;;;;;;2260897;61;20453;-66
2023/03/27 06:38:02;0.00;0.00;0.62;0.00;0.00;0.62;2.00;1.07;;;22.90;23.20;;;;;;2264039;61;20364;-66
2023/03/27 06:40:46;0.00;0.00;0.62;0.00;0.00;0.62;1.97;1.27;;;22.90;23.30;;;;;;2259981;61;20417;-66
2023/03/27 06:43:32;0.00;0.00;0.62;0.00;0.00;0.62;3.03;1.50;;;22.90;23.30;;;;;;2257948;61;20356;-66
2023/03/27 06:46:26;0.00;0.00;0.62;0.00;0.00;0.62;2.30;1.60;;;22.90;23.30;;;;;;2260490;61;20392;-66
2023/03/27 06:49:42;0.00;0.00;0.62;0.00;0.00;0.62;2.50;1.40;;;22.80;23.20;;;;;;2263274;61;20376;-66
2023/03/27 06:52:32;0.00;0.00;0.62;0.00;0.00;0.62;2.20;1.40;;;22.90;23.30;;;;;;2261479;61;20379;-66
2023/03/27 06:55:31;0.00;0.00;0.62;0.00;0.00;0.62;2.30;1.37;;;22.90;23.30;;;;;;2260735;61;20382;-67
2023/03/27 06:58:17;0.00;0.00;0.62;0.00;0.00;0.62;2.60;1.50;;;22.90;23.30;;;;;;2261468;61;20371;-66
2023/03/27 07:01:04;0.00;0.00;0.62;0.00;0.00;0.62;1.80;1.20;;;22.90;23.30;;;;;;2260893;61;20468;-66
2023/03/27 07:04:16;0.00;0.00;0.62;0.00;0.00;0.62;2.90;1.50;;;22.90;23.30;;;;;;2261456;61;20839;-66
2023/03/27 07:07:36;0.00;0.00;0.62;0.00;0.00;0.62;2.03;1.20;;;22.90;23.30;;;;;;2264212;61;20803;-67
2023/03/27 07:10:24;0.00;0.00;0.62;0.00;0.00;0.62;2.50;1.43;;;22.90;23.30;;;;;;2260249;61;20382;-66
2023/03/27 07:13:09;0.00;0.00;0.62;0.00;0.00;0.62;2.67;1.40;;;22.80;23.20;;;;;;2261347;61;20387;-66
2023/03/27 07:15:54;0.00;0.00;0.62;0.00;0.00;0.62;2.60;1.43;;;22.80;23.30;;;;;;2261193;61;20387;-66
2023/03/27 07:18:40;0.00;0.00;0.62;0.00;0.00;0.62;2.50;1.40;;;22.80;23.30;;;;;;2261235;61;20880;-66
2023/03/27 07:21:28;0.00;0.00;0.62;0.00;0.00;0.62;2.40;1.30;;;22.80;23.30;;;;;;2261283;61;20392;-65
2023/03/27 07:24:16;0.00;0.00;0.62;0.00;0.00;0.62;2.43;1.57;;;22.80;23.30;;;;;;2263616;61;20441;-67
2023/03/27 07:27:00;0.00;0.00;0.62;0.00;0.00;0.62;2.00;1.37;;;22.80;23.30;;;;;;2260955;61;20392;-66
2023/03/27 07:29:51;0.00;0.00;0.62;0.00;0.00;0.62;2.57;1.50;;;22.80;23.30;;;;;;2260938;61;20451;-66
2023/03/27 07:32:41;0.00;0.00;0.62;0.00;0.00;0.62;2.27;1.13;;;22.80;23.30;;;;;;2260942;61;20458;-66
2023/03/27 07:35:26;0.00;0.00;0.62;0.00;0.00;0.62;2.33;1.67;;;22.80;23.30;;;;;;2261124;61;20383;-66
2023/03/27 07:38:32;0.00;0.00;0.62;0.00;0.00;0.62;2.10;1.30;;;22.80;23.30;;;;;;2263690;61;20830;-66
2023/03/27 07:41:28;0.00;0.00;0.62;0.00;0.00;0.62;1.83;1.30;;;22.80;23.30;;;;;;2261183;61;20421;-67
2023/03/27 07:44:17;0.00;0.00;0.62;0.00;0.00;0.62;2.70;1.47;;;22.80;23.30;;;;;;2264533;61;20916;-66
2023/03/27 07:47:11;0.00;0.00;0.62;0.00;0.00;0.62;1.67;1.20;;;22.80;23.30;;;;;;2260568;61;20518;-66
2023/03/27 07:49:56;0.00;0.00;0.62;0.00;0.00;0.62;2.13;1.50;;;22.80;23.40;;;;;;2260890;61;20498;-66
2023/03/27 07:52:44;0.00;0.00;0.62;0.00;0.00;0.62;1.80;1.20;;;22.80;23.30;;;;;;2264391;61;20845;-66
2023/03/27 07:55:32;0.00;0.00;0.62;0.00;0.00;0.62;2.53;1.50;;;22.80;23.30;;;;;;2261079;61;20392;-66
2023/03/27 07:58:23;0.00;0.00;0.62;0.00;0.00;0.62;2.33;1.13;;;22.80;23.30;;;;;;2261112;61;20491;-66
2023/03/27 08:01:10;0.00;0.00;0.62;0.00;0.00;0.62;2.20;1.20;;;22.80;23.30;;;;;;2260324;61;20778;-67
2023/03/27 08:03:56;0.00;0.00;0.62;0.00;0.00;0.62;2.30;1.20;;;22.80;23.30;;;;;;2261064;61;20355;-67
2023/03/27 08:06:42;0.00;0.00;0.62;0.00;0.00;0.62;2.50;1.30;;;22.80;23.30;;;;;;2261299;61;20752;-69
2023/03/27 08:09:31;0.00;0.00;0.62;0.00;0.00;0.62;1.83;1.07;;;22.80;23.30;;;;;;2260202;61;20401;-66
2023/03/27 08:12:19;0.00;0.00;0.62;0.00;0.00;0.62;1.80;1.13;;;22.80;23.40;;;;;;2261204;61;20376;-66
2023/03/27 08:15:13;0.00;0.00;0.62;0.00;0.00;0.62;1.73;1.00;;;22.80;23.40;;;;;;2261015;61;20532;-67
2023/03/27 08:17:58;0.00;0.00;0.62;0.00;0.00;0.62;2.33;1.27;;;22.80;23.40;;;;;;2261303;61;20395;-68
2023/03/27 08:20:48;0.00;0.00;0.62;0.00;0.00;0.62;1.97;1.37;;;22.80;23.40;;;;;;2260793;61;20375;-66
2023/03/27 08:23:34;0.00;0.00;0.62;0.00;0.00;0.62;1.93;1.20;;;22.80;23.40;;;;;;2260435;61;20440;-66
2023/03/27 08:26:38;0.00;0.00;0.62;0.00;0.00;0.62;1.90;1.33;;;22.80;23.40;;;;;;2264201;61;20459;-66
2023/03/27 08:29:30;0.00;0.00;0.62;0.00;0.00;0.62;1.97;1.10;;;22.80;23.40;;;;;;2260593;61;20356;-66
2023/03/27 08:32:15;0.00;0.00;0.62;0.00;0.00;0.62;2.03;1.27;;;22.80;23.40;;;;;;2260772;61;20434;-66
2023/03/27 08:35:02;0.00;0.00;0.62;0.00;0.00;0.62;2.30;1.27;;;22.80;23.40;;;;;;2261227;61;20399;-66
2023/03/27 08:37:47;0.00;0.00;0.62;0.00;0.00;0.62;2.00;1.10;;;22.80;23.40;;;;;;2260370;61;20359;-66
2023/03/27 08:40:50;0.00;0.00;0.62;0.00;0.00;0.62;1.97;1.13;;;22.80;23.50;;;;;;2264174;61;20948;-66
2023/03/27 08:43:46;0.00;0.00;0.62;0.00;0.00;0.62;1.80;1.10;;;22.80;23.40;;;;;;2260815;61;20490;-70
2023/03/27 08:46:38;0.00;0.00;0.62;0.00;0.00;0.62;2.00;1.23;;;22.80;23.40;;;;;;2260411;61;20415;-66
2023/03/27 08:49:27;0.00;0.00;0.62;0.00;0.00;0.62;1.97;1.20;;;22.80;23.50;;;;;;2260426;61;20364;-66
2023/03/27 08:52:41;0.00;0.00;0.62;0.00;0.00;0.62;2.20;1.40;;;22.80;23.50;;;;;;2263655;61;20396;-66
2023/03/27 08:58:45;0.00;0.00;0.62;0.00;0.00;0.62;2.20;1.37;;;22.80;23.40;;;;;;2257328;61;20378;-68
2023/03/27 09:01:44;0.00;0.00;0.62;0.00;0.00;0.62;2.17;1.37;;;22.80;23.50;;;;;;2255328;61;20374;-66
2023/03/27 09:04:43;0.00;0.00;0.62;0.00;0.00;0.62;1.63;1.17;;;22.80;23.50;;;;;;2255696;61;20377;-66
2023/03/27 09:07:36;0.00;0.00;0.62;0.00;0.00;0.62;2.00;1.17;;;22.90;23.60;;;;;;2259125;61;20420;-66
2023/03/27 09:10:47;0.00;0.00;0.62;0.00;0.00;0.62;2.13;1.37;;;22.80;23.50;;;;;;2259651;61;20488;-66
2023/03/27 09:13:51;0.00;0.00;0.62;0.00;0.00;0.62;2.03;1.20;;;22.80;23.50;;;;;;2256635;61;20385;-66
2023/03/27 09:16:47;0.00;0.00;0.62;0.00;0.00;0.62;2.00;1.23;;;22.90;23.60;;;;;;2259432;61;20393;-66
2023/03/27 09:19:47;0.00;0.00;0.62;0.00;0.00;0.62;2.13;1.33;;;22.90;23.60;;;;;;2259261;61;20501;-67
2023/03/27 09:22:43;0.00;0.00;0.62;0.00;0.00;0.62;2.33;1.70;;;22.90;23.60;;;;;;2256339;61;20357;-66
2023/03/27 09:25:48;0.00;0.00;0.62;0.00;0.00;0.62;2.07;1.10;;;22.90;23.60;;;;;;2259433;61;20428;-66
2023/03/27 09:28:58;0.00;0.00;0.62;0.00;0.00;0.62;2.00;1.33;;;22.90;23.60;;;;;;2259938;61;20400;-66
2023/03/27 09:31:49;0.00;0.00;0.62;0.00;0.00;0.62;2.70;1.57;;;22.90;23.60;;;;;;2256837;61;20921;-66
2023/03/27 09:34:35;0.00;0.00;0.62;0.00;0.00;0.62;2.60;1.47;;;22.90;23.60;;;;;;2259502;61;20428;-66
2023/03/27 09:37:20;0.00;0.00;0.62;0.00;0.00;0.62;2.13;1.53;;;22.90;23.60;;;;;;2258878;61;20396;-66
2023/03/27 09:40:17;0.00;0.00;0.62;0.00;0.00;0.62;3.00;1.50;;;22.90;23.60;;;;;;2259337;61;20772;-66
2023/03/27 09:43:08;0.00;0.00;0.62;0.00;0.00;0.62;2.73;1.70;;;22.90;23.60;;;;;;2259682;61;20364;-66
2023/03/27 09:45:56;0.00;0.00;0.62;0.00;0.00;0.62;2.57;1.30;;;22.90;23.60;;;;;;2259154;61;20380;-66
2023/03/27 09:48:49;0.00;0.00;0.62;0.00;0.00;0.62;2.37;1.40;;;22.90;23.60;;;;;;2259397;61;20412;-66
2023/03/27 09:51:41;0.00;0.00;0.62;0.00;0.00;0.62;2.13;1.53;;;22.90;24.20;;;;;;2259374;61;20492;-66
2023/03/27 09:54:51;0.00;0.00;0.62;0.00;0.00;0.62;2.50;1.40;;;22.90;23.60;;;;;;2256662;61;20399;-66
2023/03/27 09:57:37;0.00;0.00;0.62;0.00;0.00;0.62;2.10;1.50;;;22.90;23.60;;;;;;2259581;61;20897;-66
2023/03/27 10:00:30;0.00;0.00;0.62;0.00;0.00;0.62;2.10;1.37;;;22.90;23.60;;;;;;2255883;61;20361;-67
2023/03/27 10:03:19;0.00;0.00;0.62;0.00;0.00;0.62;2.57;1.67;;;22.90;23.60;;;;;;2259704;61;20361;-70
2023/03/27 10:06:14;0.00;0.00;0.62;0.00;0.00;0.62;2.03;1.30;;;22.90;23.60;;;;;;2259467;61;20424;-66
2023/03/27 10:09:23;0.00;0.00;0.62;0.00;0.00;0.62;2.10;1.43;;;22.90;23.60;;;;;;2259364;61;20442;-67
2023/03/27 10:12:19;0.00;0.00;0.62;0.00;0.00;0.62;2.50;1.60;;;22.90;23.60;;;;;;2256917;61;20397;-67
2023/03/27 10:15:28;0.00;0.00;0.62;0.00;0.00;0.62;2.60;1.83;;;22.90;23.60;;;;;;2259121;61;20365;-66
2023/03/27 10:18:23;0.00;0.00;0.62;0.00;0.00;0.62;2.93;2.07;;;22.90;23.60;;;;;;2259723;61;20361;-66
2023/03/27 10:21:23;0.00;0.00;0.62;0.00;0.00;0.62;2.20;1.57;;;23.00;23.60;;;;;;2259010;61;20364;-66
2023/03/27 10:24:19;0.00;0.00;0.62;0.00;0.00;0.62;2.27;1.50;;;23.00;23.60;;;;;;2260238;61;20831;-68
2023/03/27 10:27:24;0.00;0.00;0.62;0.00;0.00;0.62;2.43;1.37;;;23.00;23.60;;;;;;2260156;61;20892;-66
2023/03/27 10:30:30;0.00;0.00;0.62;0.00;0.00;0.62;2.47;1.60;;;23.00;23.60;;;;;;2259548;61;20369;-66
2023/03/27 10:33:38;0.00;0.00;0.62;0.00;0.00;0.62;2.13;1.57;;;23.00;23.60;;;;;;2259935;61;20477;-66
2023/03/27 10:36:48;0.00;0.00;0.62;0.00;0.00;0.62;2.20;1.47;;;23.00;23.60;;;;;;2258002;61;20447;-66
2023/03/27 10:39:37;0.00;0.00;0.62;0.00;0.00;0.62;1.93;1.37;;;23.00;23.60;;;;;;2259873;61;20377;-66
2023/03/27 10:42:35;0.00;0.00;0.62;0.00;0.00;0.62;2.80;1.90;;;23.00;23.60;;;;;;2260409;61;20367;-67
2023/03/27 10:45:21;0.00;0.00;0.62;0.00;0.00;0.62;2.20;1.70;;;23.00;23.60;;;;;;2259627;61;20376;-66
2023/03/27 10:48:24;0.00;0.00;0.62;0.00;0.00;0.62;2.17;1.47;;;23.00;23.60;;;;;;2260185;61;20383;-69
2023/03/27 10:51:23;0.00;0.00;0.62;0.00;0.00;0.62;1.90;1.40;;;23.00;24.20;;;;;;2259282;61;20356;-66
2023/03/27 10:54:33;0.00;0.00;0.62;0.00;0.00;0.62;2.20;1.40;;;23.00;23.60;;;;;;2259968;61;20377;-66
2023/03/27 10:57:21;0.00;0.00;0.62;0.00;0.00;0.62;2.60;1.80;;;23.10;23.70;;;;;;2260107;61;20522;-68
2023/03/27 11:00:13;0.00;0.00;0.62;0.00;0.00;0.62;2.90;1.67;;;23.10;23.70;;;;;;2256677;61;20404;-66
2023/03/27 11:03:14;0.00;0.00;0.62;0.00;0.00;0.62;2.10;1.70;;;23.10;23.70;;;;;;2257323;61;20399;-67
2023/03/27 11:06:05;0.00;0.00;0.62;0.00;0.00;0.62;3.07;1.33;;;23.10;23.70;;;;;;2256928;61;20385;-66
2023/03/27 11:09:04;0.00;0.00;0.62;0.00;0.00;0.62;2.37;1.67;;;23.10;23.70;;;;;;2257075;61;20360;-66
2023/03/27 11:11:57;0.00;0.00;0.62;0.00;0.00;0.62;2.43;1.70;;;23.10;23.70;;;;;;2260116;61;20913;-67
2023/03/27 11:14:49;0.00;0.00;0.62;0.00;0.00;0.62;2.17;1.60;;;23.10;23.70;;;;;;2259579;61;20381;-67
2023/03/27 11:17:46;0.00;0.00;0.62;0.00;0.00;0.62;2.90;1.50;;;23.10;23.60;;;;;;2260265;61;20357;-66
2023/03/27 11:20:50;0.00;0.00;0.62;0.00;0.00;0.62;2.17;1.50;;;23.10;23.60;;;;;;2253917;61;20365;-66
2023/03/27 11:23:50;0.00;0.00;0.62;0.00;0.00;0.62;2.00;1.50;;;23.10;23.70;;;;;;2260104;61;20792;-67
2023/03/27 11:26:52;0.00;0.00;0.62;0.00;0.00;0.62;2.13;1.50;;;23.10;23.70;;;;;;2260106;61;20381;-66
2023/03/27 11:29:49;0.00;0.00;0.62;0.00;0.00;0.62;1.97;1.33;;;23.10;23.70;;;;;;2258774;61;20917;-66
2023/03/27 11:32:44;0.00;0.00;0.62;0.00;0.00;0.62;1.93;1.10;;;23.10;23.60;;;;;;2259972;61;20369;-66